createdAt,value
2022-09-20T00:01:55.899Z,5.13
2022-09-20T00:06:53.334Z,9.55
2022-09-20T00:09:21.050Z,9.32
2022-09-20T00:11:48.839Z,7.82
2022-09-20T00:14:19.469Z,6.07
2022-09-20T00:19:20.929Z,8.57
2022-09-20T00:21:48.736Z,11.75
2022-09-20T00:24:16.394Z,8.50
2022-09-20T00:26:43.965Z,7.68
2022-09-20T00:29:13.314Z,9.57
2022-09-20T00:31:42.940Z,8.18
2022-09-20T00:34:30.145Z,8.13
2022-09-20T00:36:59.679Z,10.25
2022-09-20T00:39:27.447Z,9.85
2022-09-20T00:41:55.115Z,10.43
2022-09-20T00:44:55.641Z,12.32
2022-09-20T00:47:33.006Z,8.43
2022-09-20T00:50:09.663Z,9.40
2022-09-20T00:52:37.623Z,11.07
2022-09-20T00:55:10.584Z,11.95
2022-09-20T00:57:41.856Z,14.38
2022-09-20T01:00:17.320Z,10.30
2022-09-20T01:02:57.705Z,12.00
2022-09-20T01:05:32.284Z,10.80
2022-09-20T01:08:01.879Z,9.07
2022-09-20T01:10:36.510Z,11.68
2022-09-20T01:13:05.750Z,10.43
2022-09-20T01:15:44.099Z,12.10
2022-09-20T01:18:17.316Z,12.38
2022-09-20T01:20:47.413Z,9.80
2022-09-20T01:23:30.563Z,13.65
2022-09-20T01:26:06.006Z,13.43
2022-09-20T01:28:40.889Z,9.85
2022-09-20T01:31:17.345Z,14.00
2022-09-20T01:34:11.278Z,10.85
2022-09-20T01:37:01.057Z,11.90
2022-09-20T01:40:04.907Z,14.43
2022-09-20T01:42:39.604Z,11.52
2022-09-20T01:45:32.339Z,14.43
2022-09-20T01:48:13.833Z,10.98
2022-09-20T01:51:16.831Z,14.88
2022-09-20T01:54:14.124Z,12.00
2022-09-20T01:57:00.931Z,11.63
2022-09-20T01:59:46.966Z,11.75
2022-09-20T02:02:52.392Z,11.98
2022-09-20T02:05:57.751Z,15.23
2022-09-20T02:08:56.186Z,12.25
2022-09-20T02:12:14.843Z,11.77
2022-09-20T02:15:19.784Z,12.85
2022-09-20T02:18:36.403Z,8.73
2022-09-20T02:21:28.479Z,12.27
2022-09-20T02:24:22.583Z,10.18
2022-09-20T02:27:20.920Z,14.73
2022-09-20T02:29:57.085Z,11.63
2022-09-20T02:32:46.198Z,11.63
2022-09-20T02:35:23.901Z,10.80
2022-09-20T02:38:01.293Z,13.30
2022-09-20T02:40:53.417Z,13.38
2022-09-20T02:43:30.053Z,11.20
2022-09-20T02:46:28.375Z,9.63
2022-09-20T02:49:17.147Z,13.20
2022-09-20T02:51:56.474Z,11.00
2022-09-20T02:54:46.160Z,11.02
2022-09-20T02:57:46.624Z,14.15
2022-09-20T03:00:43.364Z,9.23
2022-09-20T03:03:38.680Z,12.95
2022-09-20T03:06:14.925Z,14.13
2022-09-20T03:09:03.772Z,13.73
2022-09-20T03:12:01.172Z,14.45
2022-09-20T03:14:36.918Z,13.93
2022-09-20T03:17:27.779Z,11.68
2022-09-20T03:20:20.544Z,11.10
2022-09-20T03:22:48.856Z,12.70
2022-09-20T03:25:40.962Z,13.23
2022-09-20T03:28:46.401Z,13.32
2022-09-20T03:31:20.863Z,9.73
2022-09-20T03:34:19.730Z,10.90
2022-09-20T03:37:18.435Z,10.73
2022-09-20T03:40:12.336Z,11.18
2022-09-20T03:42:51.251Z,11.30
2022-09-20T03:45:35.943Z,13.13
2022-09-20T03:48:29.716Z,13.05
2022-09-20T03:51:00.444Z,11.88
2022-09-20T03:56:23.736Z,12.90
2022-09-20T03:58:57.308Z,11.75
2022-09-20T04:01:54.129Z,12.00
2022-09-20T04:04:48.542Z,17.05
2022-09-20T04:07:51.180Z,13.55
2022-09-20T04:10:33.390Z,12.38
2022-09-20T04:13:19.579Z,12.13
2022-09-20T04:16:21.679Z,12.05
2022-09-20T04:18:58.612Z,11.00
2022-09-20T04:21:53.684Z,13.32
2022-09-20T04:24:56.538Z,12.70
2022-09-20T04:27:42.250Z,13.02
2022-09-20T04:30:30.356Z,15.35
2022-09-20T04:33:22.812Z,11.05
2022-09-20T04:36:30.717Z,8.52
2022-09-20T04:39:07.026Z,10.73
2022-09-20T04:41:54.000Z,9.90
2022-09-20T04:44:25.072Z,11.20
2022-09-20T04:47:25.498Z,12.38
2022-09-20T04:50:23.899Z,12.40
2022-09-20T04:53:30.316Z,12.07
2022-09-20T04:56:04.938Z,12.02
2022-09-20T04:58:38.048Z,12.73
2022-09-20T05:01:32.286Z,10.77
2022-09-20T05:04:18.601Z,15.07
2022-09-20T05:07:23.623Z,11.57
2022-09-20T05:10:26.438Z,15.02
2022-09-20T05:13:10.865Z,11.73
2022-09-20T05:16:01.100Z,16.75
2022-09-20T05:18:28.745Z,13.20
2022-09-20T05:21:22.796Z,13.88
2022-09-20T05:24:15.484Z,13.52
2022-09-20T05:27:03.328Z,19.73
2022-09-20T05:29:37.394Z,15.80
2022-09-20T05:32:36.702Z,18.83
2022-09-20T05:35:36.656Z,15.45
2022-09-20T05:38:19.001Z,11.98
2022-09-20T05:41:26.403Z,14.88
2022-09-20T05:44:24.220Z,15.30
2022-09-20T05:47:19.268Z,17.60
2022-09-20T05:50:19.357Z,17.30
2022-09-20T05:53:17.856Z,16.23
2022-09-20T05:56:24.582Z,13.13
2022-09-20T05:59:21.672Z,14.40
2022-09-20T06:02:11.240Z,16.27
2022-09-20T06:05:03.737Z,15.02
2022-09-20T06:08:03.963Z,16.70
2022-09-20T06:10:53.961Z,14.00
2022-09-20T06:14:03.483Z,18.58
2022-09-20T06:16:59.204Z,16.83
2022-09-20T06:19:41.385Z,15.23
2022-09-20T06:22:20.412Z,17.48
2022-09-20T06:24:58.842Z,14.73
2022-09-20T06:27:52.021Z,14.68
2022-09-20T06:30:34.791Z,16.23
2022-09-20T06:33:18.649Z,18.35
2022-09-20T06:36:30.061Z,14.85
2022-09-20T06:39:33.235Z,13.10
2022-09-20T06:42:02.250Z,18.08
2022-09-20T06:44:31.426Z,16.73
2022-09-20T06:47:00.442Z,17.08
2022-09-20T06:49:29.318Z,16.55
2022-09-20T06:51:59.223Z,15.90
2022-09-20T06:54:27.807Z,17.23
2022-09-20T06:56:55.899Z,14.60
2022-09-20T06:59:23.650Z,14.55
2022-09-20T07:02:01.246Z,15.85
2022-09-20T07:04:29.047Z,14.48
2022-09-20T07:07:09.621Z,15.52
2022-09-20T07:12:05.067Z,11.68
2022-09-20T07:14:32.691Z,13.13
2022-09-20T07:17:03.820Z,11.07
2022-09-20T07:19:36.680Z,11.95
2022-09-20T07:22:04.365Z,14.70
2022-09-20T07:24:32.350Z,12.82
2022-09-20T07:27:05.127Z,19.65
2022-09-20T07:29:35.143Z,14.52
2022-09-20T07:32:03.004Z,13.25
2022-09-20T07:34:31.423Z,14.48
2022-09-20T07:37:00.378Z,11.60
2022-09-20T07:39:28.190Z,13.38
2022-09-20T07:41:56.148Z,11.75
2022-09-20T07:44:27.927Z,16.10
2022-09-20T07:47:01.563Z,10.88
2022-09-20T07:49:30.589Z,11.57
2022-09-20T07:52:00.665Z,12.77
2022-09-20T07:54:28.569Z,12.98
2022-09-20T07:56:57.542Z,12.07
2022-09-20T07:59:26.865Z,13.00
2022-09-20T08:01:58.927Z,12.48
2022-09-20T08:04:29.445Z,14.45
2022-09-20T08:06:59.627Z,14.48
2022-09-20T08:09:27.234Z,15.73
2022-09-20T08:11:56.708Z,14.10
2022-09-20T08:14:24.745Z,14.07
2022-09-20T08:16:52.809Z,15.23
2022-09-20T08:19:23.308Z,13.25
2022-09-20T08:21:56.379Z,14.38
2022-09-20T08:24:29.112Z,15.70
2022-09-20T08:26:57.255Z,14.18
2022-09-20T08:29:28.675Z,14.38
2022-09-20T08:31:59.011Z,13.35
2022-09-20T08:34:35.916Z,12.77
2022-09-20T08:37:09.655Z,14.88
2022-09-20T08:42:37.912Z,17.73
2022-09-20T08:45:34.605Z,13.80
2022-09-20T08:48:06.247Z,13.90
2022-09-20T08:50:41.161Z,14.23
2022-09-20T08:53:20.957Z,20.45
2022-09-20T08:55:50.507Z,12.00
2022-09-20T08:58:22.097Z,15.73
2022-09-20T09:00:52.944Z,12.80
2022-09-20T09:03:23.979Z,12.98
2022-09-20T09:05:58.561Z,12.23
2022-09-20T09:08:38.093Z,9.27
2022-09-20T09:11:09.671Z,4.75
2022-09-20T09:14:02.228Z,10.82
2022-09-20T09:16:35.250Z,9.20
2022-09-20T09:19:33.249Z,8.82
2022-09-20T09:22:04.439Z,9.70
2022-09-20T09:24:33.423Z,9.05
2022-09-20T09:27:18.794Z,2.70
2022-09-20T09:29:56.709Z,3.50
2022-09-20T09:32:31.216Z,7.18
2022-09-20T09:35:32.367Z,1.88
2022-09-20T09:38:04.391Z,4.57
2022-09-20T09:40:33.105Z,4.72
2022-09-20T09:43:03.137Z,3.03
2022-09-20T09:45:39.113Z,2.30
2022-09-20T09:48:30.339Z,3.90
2022-09-20T09:51:20.960Z,1.50
2022-09-20T09:53:51.335Z,1.45
2022-09-20T09:56:47.215Z,5.00
2022-09-20T09:59:42.268Z,2.03
2022-09-20T10:02:18.686Z,2.47
2022-09-20T10:05:00.495Z,4.60
2022-09-20T10:07:42.531Z,2.97
2022-09-20T10:10:32.496Z,2.30
2022-09-20T10:13:11.867Z,2.25
2022-09-20T10:16:11.844Z,3.22
2022-09-20T10:19:06.802Z,3.53
2022-09-20T10:22:01.953Z,1.63
2022-09-20T10:25:16.948Z,2.55
2022-09-20T10:27:58.343Z,3.38
2022-09-20T10:30:52.974Z,1.38
2022-09-20T10:33:54.051Z,1.90
2022-09-20T10:36:29.727Z,2.03
2022-09-20T10:39:21.067Z,1.63
2022-09-20T10:42:27.945Z,1.25
2022-09-20T10:45:53.365Z,2.05
2022-09-20T10:48:24.348Z,1.95
2022-09-20T10:51:00.179Z,1.75
2022-09-20T10:54:03.793Z,4.07
2022-09-20T10:56:47.197Z,2.70
2022-09-20T10:59:31.747Z,3.78
2022-09-20T11:02:36.539Z,4.10
2022-09-20T11:05:20.861Z,1.45
2022-09-20T11:07:56.817Z,1.15
2022-09-20T11:10:37.313Z,3.83
2022-09-20T11:13:39.778Z,2.38
2022-09-20T11:16:34.468Z,5.45
2022-09-20T11:19:18.466Z,2.08
2022-09-20T11:22:09.668Z,3.10
2022-09-20T11:24:47.540Z,4.15
2022-09-20T11:27:32.013Z,2.47
2022-09-20T11:30:20.038Z,2.30
2022-09-20T11:33:05.190Z,3.72
2022-09-20T11:35:48.056Z,6.32
2022-09-20T11:38:59.206Z,5.15
2022-09-20T11:41:31.645Z,4.68
2022-09-20T11:44:08.034Z,2.53
2022-09-20T11:46:47.917Z,2.22
2022-09-20T11:49:31.145Z,2.85
2022-09-20T11:52:07.648Z,3.97
2022-09-20T11:54:48.995Z,3.50
2022-09-20T11:57:17.737Z,3.25
2022-09-20T11:59:56.920Z,2.00
2022-09-20T12:02:27.464Z,2.47
2022-09-20T12:04:56.581Z,2.33
2022-09-20T12:07:42.141Z,5.75
2022-09-20T12:10:35.961Z,1.42
2022-09-20T12:13:07.618Z,2.90
2022-09-20T12:15:39.611Z,2.47
2022-09-20T12:18:28.869Z,3.63
2022-09-20T12:21:00.079Z,3.57
2022-09-20T12:23:59.700Z,2.97
2022-09-20T12:26:27.247Z,1.17
2022-09-20T12:29:09.900Z,1.48
2022-09-20T12:31:38.628Z,3.67
2022-09-20T12:34:14.490Z,3.35
2022-09-20T12:37:05.114Z,7.38
2022-09-20T12:39:38.741Z,2.75
2022-09-20T12:42:36.505Z,1.73
2022-09-20T12:45:18.932Z,3.38
2022-09-20T12:47:57.459Z,3.67
2022-09-20T12:50:56.326Z,2.97
2022-09-20T12:53:28.337Z,3.65
2022-09-20T12:56:02.037Z,1.52
2022-09-20T12:58:53.213Z,1.30
2022-09-20T13:01:21.092Z,3.30
2022-09-20T13:03:50.316Z,6.72
2022-09-20T13:06:19.290Z,1.50
2022-09-20T13:09:04.709Z,5.75
2022-09-20T13:11:56.044Z,4.65
2022-09-20T13:14:42.607Z,3.13
2022-09-20T13:17:26.886Z,3.00
2022-09-20T13:19:58.139Z,2.85
2022-09-20T13:22:29.132Z,3.13
2022-09-20T13:25:01.693Z,3.95
2022-09-20T13:28:21.601Z,4.05
2022-09-20T13:30:52.050Z,6.90
2022-09-20T13:33:25.070Z,7.18
2022-09-20T13:35:57.229Z,3.67
2022-09-20T13:38:30.188Z,3.40
2022-09-20T13:41:13.102Z,3.63
2022-09-20T13:43:41.975Z,4.13
2022-09-20T13:46:33.523Z,3.97
2022-09-20T13:49:20.813Z,4.85
2022-09-20T13:51:49.330Z,6.35
2022-09-20T13:54:31.858Z,5.70
2022-09-20T13:57:06.152Z,6.38
2022-09-20T13:59:44.950Z,4.65
2022-09-20T14:02:28.055Z,4.13
2022-09-20T14:05:00.832Z,6.30
2022-09-20T14:07:29.795Z,6.03
2022-09-20T14:10:01.473Z,5.43
2022-09-20T14:12:31.630Z,2.55
2022-09-20T14:15:00.062Z,4.80
2022-09-20T14:17:35.676Z,4.35
2022-09-20T14:20:03.826Z,3.30
2022-09-20T14:22:35.419Z,6.00
2022-09-20T14:25:21.688Z,4.75
2022-09-20T14:28:09.530Z,2.67
2022-09-20T14:30:49.319Z,6.20
2022-09-20T14:33:21.456Z,7.28
2022-09-20T14:35:51.723Z,4.90
2022-09-20T14:38:24.239Z,4.18
2022-09-20T14:40:52.723Z,3.92
2022-09-20T14:43:33.055Z,4.35
2022-09-20T14:46:07.738Z,4.38
2022-09-20T14:48:43.487Z,6.60
2022-09-20T14:51:27.724Z,3.33
2022-09-20T14:54:13.467Z,2.30
2022-09-20T14:56:49.438Z,3.10
2022-09-20T14:59:22.969Z,2.33
2022-09-20T15:02:10.389Z,7.47
2022-09-20T15:04:53.208Z,4.10
2022-09-20T15:07:27.216Z,7.50
2022-09-20T15:09:55.734Z,3.53
2022-09-20T15:12:23.898Z,5.57
2022-09-20T15:15:00.464Z,3.28
2022-09-20T15:17:28.118Z,4.90
2022-09-20T15:19:55.976Z,3.97
2022-09-20T15:22:24.120Z,4.60
2022-09-20T15:25:01.815Z,4.25
2022-09-20T15:27:31.640Z,6.90
2022-09-20T15:29:59.422Z,4.32
2022-09-20T15:32:28.702Z,7.53
2022-09-20T15:34:56.313Z,4.55
2022-09-20T15:37:24.142Z,2.55
2022-09-20T15:39:52.237Z,2.45
2022-09-20T15:42:21.636Z,2.65
2022-09-20T15:44:57.003Z,3.60
2022-09-20T15:47:26.844Z,3.33
2022-09-20T15:52:29.065Z,5.82
2022-09-20T15:54:59.585Z,3.75
2022-09-20T15:57:27.552Z,2.95
2022-09-20T16:00:05.174Z,4.30
2022-09-20T16:02:37.264Z,4.03
2022-09-20T16:07:46.180Z,7.68
2022-09-20T16:10:15.372Z,5.80
2022-09-20T16:12:48.872Z,4.20
2022-09-20T16:15:17.156Z,4.72
2022-09-20T16:18:03.288Z,3.60
2022-09-20T16:20:34.181Z,4.22
2022-09-20T16:23:03.843Z,6.68
2022-09-20T16:25:34.388Z,3.00
2022-09-20T16:28:02.418Z,3.20
2022-09-20T16:30:31.126Z,7.95
2022-09-20T16:33:06.055Z,4.93
2022-09-20T16:35:34.271Z,5.60
2022-09-20T16:38:02.076Z,6.03
2022-09-20T16:40:33.828Z,4.93
2022-09-20T16:43:11.624Z,5.00
2022-09-20T16:45:41.426Z,4.95
2022-09-20T16:48:09.993Z,4.38
2022-09-20T16:50:39.963Z,6.93
2022-09-20T16:53:12.221Z,6.97
2022-09-20T16:55:45.353Z,8.48
2022-09-20T16:58:13.248Z,4.80
2022-09-20T17:00:43.898Z,5.03
2022-09-20T17:03:12.494Z,4.95
2022-09-20T17:05:44.191Z,5.70
2022-09-20T17:08:18.061Z,6.45
2022-09-20T17:11:00.404Z,5.47
2022-09-20T17:13:34.343Z,5.25
2022-09-20T17:16:19.479Z,6.65
2022-09-20T17:18:56.438Z,5.85
2022-09-20T17:21:25.440Z,6.45
2022-09-20T17:24:13.867Z,9.10
2022-09-20T17:26:46.696Z,5.63
2022-09-20T17:29:17.791Z,5.88
2022-09-20T17:31:56.238Z,6.45
2022-09-20T17:34:25.631Z,5.18
2022-09-20T17:36:55.389Z,4.45
2022-09-20T17:39:33.769Z,3.97
2022-09-20T17:42:04.457Z,8.98
2022-09-20T17:44:36.742Z,6.93
2022-09-20T17:47:04.713Z,4.03
2022-09-20T17:49:37.680Z,4.63
2022-09-20T17:52:09.884Z,6.03
2022-09-20T17:54:51.469Z,7.00
2022-09-20T17:57:19.303Z,4.05
2022-09-20T17:59:49.517Z,5.43
2022-09-20T18:02:23.949Z,5.65
2022-09-20T18:04:54.021Z,6.38
2022-09-20T18:07:21.600Z,5.53
2022-09-20T18:09:49.239Z,7.18
2022-09-20T18:12:21.589Z,6.35
2022-09-20T18:14:49.325Z,5.47
2022-09-20T18:17:16.965Z,5.30
2022-09-20T18:19:44.733Z,7.20
2022-09-20T18:22:13.240Z,6.25
2022-09-20T18:24:41.014Z,7.43
2022-09-20T18:27:13.409Z,9.68
2022-09-20T18:29:41.329Z,8.00
2022-09-20T18:32:12.413Z,8.68
2022-09-20T18:34:46.266Z,10.65
2022-09-20T18:37:14.844Z,7.88
2022-09-20T18:39:43.101Z,11.05
2022-09-20T18:42:19.655Z,8.05
2022-09-20T18:44:54.132Z,6.20
2022-09-20T18:47:22.141Z,8.65
2022-09-20T18:49:53.942Z,7.22
2022-09-20T18:52:24.159Z,9.82
2022-09-20T18:54:53.873Z,7.65
2022-09-20T18:57:22.106Z,9.27
2022-09-20T18:59:55.213Z,8.48
2022-09-20T19:02:59.481Z,11.88
2022-09-20T19:05:32.594Z,11.23
2022-09-20T19:08:21.867Z,10.35
2022-09-20T19:11:01.274Z,8.27
2022-09-20T19:13:44.995Z,9.38
2022-09-20T19:16:39.073Z,11.48
2022-09-20T19:19:41.050Z,9.65
2022-09-20T19:22:44.003Z,8.55
2022-09-20T19:27:54.495Z,11.88
2022-09-20T19:30:28.356Z,13.07
2022-09-20T19:33:04.288Z,12.60
2022-09-20T19:35:39.440Z,7.57
2022-09-20T19:38:15.591Z,9.55
2022-09-20T19:40:59.688Z,17.75
2022-09-20T19:44:12.402Z,18.52
2022-09-20T19:47:08.884Z,23.48
2022-09-20T19:49:46.540Z,20.63
2022-09-20T19:52:15.608Z,16.48
2022-09-20T19:54:49.321Z,16.83
2022-09-20T19:57:28.545Z,18.40
2022-09-20T19:59:58.863Z,13.20
2022-09-20T20:02:26.767Z,18.88
2022-09-20T20:04:54.686Z,13.77
2022-09-20T20:07:43.088Z,17.83
2022-09-20T20:10:44.025Z,19.85
2022-09-20T20:14:15.162Z,24.58
2022-09-20T20:17:20.940Z,18.08
2022-09-20T20:20:11.116Z,17.70
2022-09-20T20:22:56.906Z,16.67
2022-09-20T20:25:36.108Z,18.27
2022-09-20T20:28:13.844Z,20.95
2022-09-20T20:30:42.258Z,16.80
2022-09-20T20:33:25.026Z,16.65
2022-09-20T20:35:58.666Z,18.40
2022-09-20T20:38:27.251Z,14.60
2022-09-20T20:41:06.737Z,12.00
2022-09-20T20:43:45.781Z,13.18
2022-09-20T20:46:18.817Z,10.73
2022-09-20T20:48:48.078Z,13.40
2022-09-20T20:51:18.558Z,11.07
2022-09-20T20:53:50.565Z,13.60
2022-09-20T20:56:23.284Z,17.95
2022-09-20T20:58:51.343Z,11.50
2022-09-20T21:01:29.899Z,15.43
2022-09-20T21:03:58.960Z,16.77
2022-09-20T21:06:30.356Z,13.73
2022-09-20T21:08:58.476Z,13.05
2022-09-20T21:11:33.682Z,10.27
2022-09-20T21:14:04.961Z,10.98
2022-09-20T21:16:40.424Z,12.60
2022-09-20T21:19:09.628Z,14.45
2022-09-20T21:21:39.227Z,11.73
2022-09-20T21:24:09.444Z,11.88
2022-09-20T21:26:40.835Z,9.85
2022-09-20T21:29:16.362Z,12.60
2022-09-20T21:32:06.370Z,13.98
2022-09-20T21:34:38.793Z,12.32
2022-09-20T21:37:06.507Z,10.13
2022-09-20T21:39:42.255Z,11.20
2022-09-20T21:42:10.101Z,11.73
2022-09-20T21:44:38.924Z,13.30
2022-09-20T21:47:09.906Z,13.13
2022-09-20T21:49:37.436Z,13.93
2022-09-20T21:52:07.695Z,19.50
2022-09-20T21:54:35.325Z,14.13
2022-09-20T21:57:05.629Z,14.63
2022-09-20T21:59:33.711Z,18.13
2022-09-20T22:02:04.578Z,12.25
2022-09-20T22:04:32.513Z,15.90
2022-09-20T22:07:17.113Z,13.73
2022-09-20T22:09:45.361Z,10.25
2022-09-20T22:12:13.085Z,12.98
2022-09-20T22:14:41.692Z,15.23
2022-09-20T22:17:09.575Z,13.27
2022-09-20T22:19:38.005Z,16.80
2022-09-20T22:22:05.617Z,17.00
2022-09-20T22:24:36.109Z,18.20
2022-09-20T22:27:09.321Z,18.60
2022-09-20T22:29:37.348Z,17.92
2022-09-20T22:32:05.579Z,15.43
2022-09-20T22:34:41.997Z,20.55
2022-09-20T22:37:10.244Z,16.48
2022-09-20T22:39:38.882Z,15.25
2022-09-20T22:42:06.645Z,17.15
2022-09-20T22:44:35.508Z,18.40
2022-09-20T22:47:03.963Z,19.50
2022-09-20T22:49:31.835Z,19.13
2022-09-20T22:52:08.877Z,19.35
2022-09-20T22:54:36.812Z,16.15
2022-09-20T22:57:08.195Z,19.15
2022-09-20T22:59:36.072Z,18.30
2022-09-20T23:02:06.554Z,21.65
2022-09-20T23:04:37.447Z,19.40
2022-09-20T23:07:07.861Z,17.67
2022-09-20T23:09:35.862Z,18.70
2022-09-20T23:12:11.509Z,17.13
2022-09-20T23:14:47.828Z,21.05
2022-09-20T23:17:15.710Z,17.42
2022-09-20T23:19:44.709Z,16.27
2022-09-20T23:22:13.060Z,17.42
2022-09-20T23:24:43.482Z,16.00
2022-09-20T23:27:17.651Z,14.20
2022-09-20T23:29:45.591Z,17.15
2022-09-20T23:32:13.537Z,17.35
2022-09-20T23:34:44.249Z,18.58
2022-09-20T23:39:42.789Z,18.48
2022-09-20T23:42:12.923Z,18.17
2022-09-20T23:44:43.602Z,18.77
2022-09-20T23:49:39.377Z,16.23
2022-09-20T23:52:11.175Z,15.98
2022-09-20T23:54:42.516Z,16.23
2022-09-20T23:57:12.943Z,15.75
2022-09-20T23:59:41.339Z,18.42
